La Rochelle-Île de Ré Airport

Airport
ICAO code: 
LFBH
IATA Code: 
LRH
Summary
ICAO Region: 
EUR
Territory: 
Location: 
, Poitou-Charentes
Serving: 
La Rochelle
Elevation: 
74 ft
Coordinates: 
Aerial View: 
46° 10' 45.12" N, 1° 11' 43.008" W
Metar
Observation
LFBH 060600Z AUTO 32009KT CAVOK 07/04 Q1019 NOSIG
Station
La Rochelle
Date/Time
2021-12-06 06:00:00
Wind direction
320°
Wind speed
09 kts
Lowest cloud amount
clouds and visibility OK
Temperature
7°C
Dew point
4°C
Humidity
81%
QNH
1019 hPa
Weather condition
n/a

Runways

Designator Length Width Surface Rops
10/28 2255 45 ASP No/No
Airport map: 
Aerial View: 

SKYbrary Partners:

Safety knowledge contributed by: